createdAt,value
2019-02-17T00:01:44.003Z,64.52
2019-02-17T00:04:15.520Z,64.52
2019-02-17T00:06:47.075Z,64.07
2019-02-17T00:09:19.522Z,64.26
2019-02-17T00:11:50.112Z,64.51
2019-02-17T00:14:23.894Z,64.54
2019-02-17T00:16:53.920Z,64.51
2019-02-17T00:19:25.988Z,64.84
2019-02-17T00:21:56.594Z,64.86
2019-02-17T00:24:26.953Z,65.04
2019-02-17T00:26:59.043Z,65.05
2019-02-17T00:29:32.267Z,65.19
2019-02-17T00:32:02.708Z,65.46
2019-02-17T00:34:33.409Z,65.70
2019-02-17T00:37:04.898Z,65.64
2019-02-17T00:39:37.524Z,65.51
2019-02-17T00:42:09.453Z,65.40
2019-02-17T00:44:39.889Z,65.33
2019-02-17T00:47:10.529Z,65.31
2019-02-17T00:49:41.161Z,65.31
2019-02-17T00:52:14.107Z,65.45
2019-02-17T00:54:44.503Z,65.69
2019-02-17T00:57:15.397Z,65.96
2019-02-17T00:59:47.082Z,66.23
2019-02-17T01:02:17.585Z,66.65
2019-02-17T01:04:48.135Z,66.73
2019-02-17T01:07:19.963Z,67.05
2019-02-17T01:09:50.512Z,67.29
2019-02-17T01:12:24.271Z,67.40
2019-02-17T01:14:56.208Z,67.40
2019-02-17T01:17:38.175Z,68.08
2019-02-17T01:20:10.317Z,67.98
2019-02-17T01:22:43.117Z,68.04
2019-02-17T01:25:13.730Z,68.01
2019-02-17T01:27:44.382Z,67.64
2019-02-17T01:30:15.982Z,67.71
2019-02-17T01:32:46.575Z,67.40
2019-02-17T01:35:16.870Z,67.40
2019-02-17T01:37:48.972Z,67.56
2019-02-17T01:40:20.462Z,67.49
2019-02-17T01:42:51.136Z,67.57
2019-02-17T01:45:22.536Z,67.75
2019-02-17T01:47:52.857Z,67.47
2019-02-17T01:50:23.158Z,67.47
2019-02-17T01:52:55.617Z,67.44
2019-02-17T01:55:25.961Z,67.58
2019-02-17T01:57:57.613Z,67.51
2019-02-17T02:00:45.212Z,67.44
2019-02-17T02:03:10.471Z,67.31
2019-02-17T02:05:40.869Z,66.93
2019-02-17T02:08:12.777Z,66.78
2019-02-17T02:10:43.082Z,67.23
2019-02-17T02:13:13.758Z,67.22
2019-02-17T02:15:44.093Z,67.53
2019-02-17T02:18:15.232Z,67.67
2019-02-17T02:20:45.756Z,67.59
2019-02-17T02:23:17.493Z,67.58
2019-02-17T02:25:47.873Z,67.75
2019-02-17T02:28:19.073Z,68.22
2019-02-17T02:30:49.695Z,68.34
2019-02-17T02:33:21.656Z,68.46
2019-02-17T02:35:52.263Z,68.97
2019-02-17T02:38:22.737Z,68.97
2019-02-17T02:40:53.371Z,69.22
2019-02-17T02:43:23.737Z,69.15
2019-02-17T02:45:55.719Z,69.04
2019-02-17T02:48:26.003Z,69.07
2019-02-17T02:50:56.665Z,69.05
2019-02-17T02:53:27.003Z,68.89
2019-02-17T02:55:57.429Z,68.67
2019-02-17T02:58:27.931Z,68.80
2019-02-17T03:00:58.241Z,68.76
2019-02-17T03:03:28.863Z,68.93
2019-02-17T03:06:10.057Z,69.22
2019-02-17T03:08:40.505Z,69.38
2019-02-17T03:11:11.223Z,69.55
2019-02-17T03:13:43.304Z,69.71
2019-02-17T03:16:13.986Z,69.57
2019-02-17T03:18:45.785Z,69.33
2019-02-17T03:21:24.710Z,69.33
2019-02-17T03:23:55.428Z,69.33
2019-02-17T03:26:25.798Z,69.61
2019-02-17T03:28:57.840Z,69.67
2019-02-17T03:31:29.732Z,69.86
2019-02-17T03:34:00.041Z,69.95
2019-02-17T03:36:30.689Z,70.22
2019-02-17T03:39:01.094Z,70.47
2019-02-17T03:41:33.281Z,70.45
2019-02-17T03:44:03.893Z,70.55
2019-02-17T03:46:36.419Z,70.27
2019-02-17T03:49:07.002Z,70.06
2019-02-17T03:51:37.307Z,69.71
2019-02-17T03:54:07.846Z,69.75
2019-02-17T03:56:39.382Z,69.69
2019-02-17T03:59:11.338Z,69.54
2019-02-17T04:01:42.592Z,69.77
2019-02-17T04:04:14.074Z,69.82
2019-02-17T04:06:45.574Z,70.04
2019-02-17T04:09:15.879Z,69.92
2019-02-17T04:11:50.204Z,70.04
2019-02-17T04:14:20.497Z,70.11
2019-02-17T04:16:51.181Z,70.31
2019-02-17T04:19:21.864Z,70.33
2019-02-17T04:21:56.832Z,70.34
2019-02-17T04:24:27.632Z,70.15
2019-02-17T04:27:00.078Z,70.05
2019-02-17T04:29:33.808Z,69.76
2019-02-17T04:32:04.168Z,69.53
2019-02-17T04:34:38.411Z,69.41
2019-02-17T04:37:11.626Z,69.32
2019-02-17T04:39:41.904Z,69.41
2019-02-17T04:42:12.344Z,69.53
2019-02-17T04:44:43.938Z,69.49
2019-02-17T04:47:14.315Z,69.41
2019-02-17T04:49:50.205Z,69.74
2019-02-17T04:52:22.578Z,69.92
2019-02-17T04:54:53.162Z,70.03
2019-02-17T04:57:28.790Z,70.09
2019-02-17T04:59:59.331Z,70.21
2019-02-17T05:02:29.773Z,70.22
2019-02-17T05:05:04.396Z,70.40
2019-02-17T05:07:38.116Z,70.29
2019-02-17T05:10:18.172Z,70.22
2019-02-17T05:12:49.979Z,70.39
2019-02-17T05:15:21.182Z,70.57
2019-02-17T05:17:51.734Z,70.54
2019-02-17T05:20:24.531Z,70.45
2019-02-17T05:22:56.730Z,70.36
2019-02-17T05:25:28.115Z,70.23
2019-02-17T05:28:07.851Z,70.09
2019-02-17T05:30:38.572Z,70.17
2019-02-17T05:33:14.464Z,70.06
2019-02-17T05:35:43.652Z,70.15
2019-02-17T05:38:15.366Z,70.54
2019-02-17T05:40:49.494Z,70.74
2019-02-17T05:43:19.846Z,70.74
2019-02-17T05:45:50.255Z,70.62
2019-02-17T05:48:24.764Z,70.64
2019-02-17T05:50:55.291Z,70.64
2019-02-17T05:53:25.788Z,70.76
2019-02-17T05:55:56.088Z,70.63
2019-02-17T05:58:29.918Z,70.11
2019-02-17T06:01:03.796Z,69.80
2019-02-17T06:03:34.428Z,69.50
2019-02-17T06:06:08.985Z,69.30
2019-02-17T06:08:41.073Z,69.29
2019-02-17T06:11:20.607Z,69.19
2019-02-17T06:13:50.902Z,69.22
2019-02-17T06:16:23.376Z,69.20
2019-02-17T06:18:54.016Z,69.21
2019-02-17T06:21:25.961Z,69.41
2019-02-17T06:23:57.813Z,69.29
2019-02-17T06:26:28.476Z,69.18
2019-02-17T06:28:59.929Z,68.83
2019-02-17T06:31:30.486Z,68.59
2019-02-17T06:34:03.929Z,68.17
2019-02-17T06:36:34.234Z,68.17
2019-02-17T06:39:05.679Z,68.36
2019-02-17T06:41:39.611Z,68.42
2019-02-17T06:44:10.241Z,68.48
2019-02-17T06:46:45.469Z,68.34
2019-02-17T06:49:16.196Z,68.39
2019-02-17T06:51:46.612Z,68.37
2019-02-17T06:54:17.238Z,68.34
2019-02-17T06:57:09.167Z,68.29
2019-02-17T06:59:43.581Z,68.22
2019-02-17T07:02:18.120Z,68.15
2019-02-17T07:05:22.749Z,67.92
2019-02-17T07:07:53.029Z,67.64
2019-02-17T07:10:29.064Z,67.31
2019-02-17T07:13:03.858Z,66.95
2019-02-17T07:15:40.880Z,66.62
2019-02-17T07:18:11.680Z,66.39
2019-02-17T07:20:46.170Z,66.13
2019-02-17T07:23:17.738Z,65.78
2019-02-17T07:25:49.017Z,65.48
2019-02-17T07:28:20.605Z,65.12
2019-02-17T07:30:52.830Z,64.63
2019-02-17T07:33:23.122Z,64.23
2019-02-17T07:35:53.443Z,63.84
2019-02-17T07:38:23.782Z,63.53
2019-02-17T07:40:57.157Z,63.14
2019-02-17T07:43:32.088Z,62.78
2019-02-17T07:46:05.591Z,62.28
2019-02-17T07:48:36.029Z,61.83
2019-02-17T07:51:06.675Z,61.21
2019-02-17T07:53:36.976Z,60.81
2019-02-17T07:56:08.548Z,60.23
2019-02-17T07:58:41.735Z,59.71
2019-02-17T08:01:12.395Z,59.36
2019-02-17T08:03:45.740Z,58.87
2019-02-17T08:06:21.637Z,58.31
2019-02-17T08:08:49.493Z,57.63
2019-02-17T08:11:28.857Z,57.11
2019-02-17T08:14:02.353Z,55.74
2019-02-17T08:16:33.305Z,55.74
2019-02-17T08:19:08.620Z,55.45
2019-02-17T08:21:39.244Z,54.78
2019-02-17T08:24:09.735Z,54.20
2019-02-17T08:26:40.171Z,53.56
2019-02-17T08:29:11.903Z,53.18
2019-02-17T08:31:42.471Z,52.33
2019-02-17T08:34:15.385Z,48.68
2019-02-17T08:36:45.893Z,42.94
2019-02-17T08:39:20.562Z,39.76
2019-02-17T08:41:51.948Z,38.76
2019-02-17T08:44:25.657Z,38.40
2019-02-17T08:46:58.612Z,39.26
2019-02-17T08:49:28.974Z,38.17
2019-02-17T08:52:02.727Z,36.92
2019-02-17T08:54:35.055Z,36.01
2019-02-17T08:57:07.533Z,35.79
2019-02-17T08:59:39.725Z,36.57
2019-02-17T09:02:10.037Z,38.03
2019-02-17T09:04:40.412Z,39.34
2019-02-17T09:07:14.155Z,38.52
2019-02-17T09:09:44.485Z,38.35
2019-02-17T09:12:16.778Z,38.17
2019-02-17T09:14:47.312Z,37.49
2019-02-17T09:17:18.065Z,36.84
2019-02-17T09:19:52.203Z,35.21
2019-02-17T09:22:24.805Z,35.22
2019-02-17T09:24:55.846Z,36.26
2019-02-17T09:27:30.560Z,36.18
2019-02-17T09:30:02.117Z,35.93
2019-02-17T09:32:33.897Z,36.95
2019-02-17T09:35:04.532Z,38.08
2019-02-17T09:37:37.302Z,37.87
2019-02-17T09:40:09.070Z,36.76
2019-02-17T09:42:40.409Z,35.04
2019-02-17T09:45:13.073Z,32.88
2019-02-17T09:47:44.286Z,30.57
2019-02-17T09:50:14.713Z,28.22
2019-02-17T09:52:48.275Z,26.60
2019-02-17T09:55:20.579Z,24.95
2019-02-17T09:57:52.135Z,23.40
2019-02-17T10:00:28.595Z,22.74
2019-02-17T10:03:04.059Z,22.46
2019-02-17T10:05:35.190Z,22.94
2019-02-17T10:08:09.615Z,21.66
2019-02-17T10:10:41.578Z,21.29
2019-02-17T10:13:12.132Z,21.17
2019-02-17T10:15:51.843Z,21.67
2019-02-17T10:18:23.133Z,21.30
2019-02-17T10:20:53.831Z,22.00
2019-02-17T10:23:26.485Z,22.87
2019-02-17T10:25:58.458Z,24.26
2019-02-17T10:28:30.799Z,24.38
2019-02-17T10:31:01.787Z,24.80
2019-02-17T10:33:33.283Z,24.57
2019-02-17T10:36:03.984Z,23.57
2019-02-17T10:38:35.335Z,22.80
2019-02-17T10:41:06.156Z,22.18
2019-02-17T10:43:37.262Z,22.93
2019-02-17T10:46:09.945Z,26.41
2019-02-17T10:48:40.723Z,29.94
2019-02-17T10:51:13.306Z,32.84
2019-02-17T10:53:51.321Z,34.86
2019-02-17T10:56:25.173Z,35.93
2019-02-17T10:58:55.841Z,36.57
2019-02-17T11:01:26.173Z,37.20
2019-02-17T11:04:08.607Z,37.55
2019-02-17T11:06:38.955Z,38.09
2019-02-17T11:09:19.905Z,38.60
2019-02-17T11:11:53.143Z,38.63
2019-02-17T11:14:23.573Z,38.80
2019-02-17T11:16:55.018Z,38.93
2019-02-17T11:19:26.678Z,38.83
2019-02-17T11:21:58.139Z,38.94
2019-02-17T11:24:28.878Z,38.78
2019-02-17T11:27:00.508Z,38.62
2019-02-17T11:29:30.804Z,38.60
2019-02-17T11:32:01.648Z,38.66
2019-02-17T11:34:32.171Z,38.51
2019-02-17T11:37:02.492Z,38.26
2019-02-17T11:39:33.109Z,38.12
2019-02-17T11:42:07.537Z,37.76
2019-02-17T11:44:39.714Z,37.84
2019-02-17T11:47:10.418Z,37.52
2019-02-17T11:49:42.525Z,37.49
2019-02-17T11:52:13.188Z,37.11
2019-02-17T11:54:47.552Z,36.70
2019-02-17T11:57:23.595Z,36.55
2019-02-17T11:59:51.055Z,36.57
2019-02-17T12:02:27.665Z,36.41
2019-02-17T12:05:04.155Z,36.69
2019-02-17T12:07:37.582Z,36.38
2019-02-17T12:10:10.293Z,36.37
2019-02-17T12:12:41.273Z,36.10
2019-02-17T12:15:13.919Z,36.04
2019-02-17T12:17:45.462Z,36.15
2019-02-17T12:20:41.870Z,36.04
2019-02-17T12:23:19.389Z,35.66
2019-02-17T12:25:55.195Z,35.67
2019-02-17T12:28:29.785Z,35.47
2019-02-17T12:31:04.883Z,35.22
2019-02-17T12:33:35.595Z,34.95
2019-02-17T12:36:08.570Z,34.88
2019-02-17T12:39:34.102Z,34.66
2019-02-17T12:41:18.128Z,34.36
2019-02-17T12:43:56.314Z,34.48
2019-02-17T12:46:27.550Z,34.37
2019-02-17T12:48:58.123Z,34.44
2019-02-17T12:51:32.924Z,34.26
2019-02-17T12:54:03.461Z,33.98
2019-02-17T12:56:34.526Z,33.95
2019-02-17T12:59:10.588Z,33.71
2019-02-17T13:01:41.744Z,33.81
2019-02-17T13:04:12.814Z,33.84
2019-02-17T13:06:49.510Z,33.97
2019-02-17T13:09:19.963Z,34.06
2019-02-17T13:11:50.288Z,34.07
2019-02-17T13:14:23.023Z,34.09
2019-02-17T13:16:56.075Z,34.35
2019-02-17T13:19:26.674Z,34.39
2019-02-17T13:21:57.798Z,34.09
2019-02-17T13:24:31.547Z,34.17
2019-02-17T13:27:02.377Z,34.31
2019-02-17T13:29:33.270Z,34.18
2019-02-17T13:32:05.310Z,34.15
2019-02-17T13:34:36.909Z,34.17
2019-02-17T13:37:09.237Z,34.09
2019-02-17T13:39:43.306Z,34.08
2019-02-17T13:42:13.967Z,34.06
2019-02-17T13:44:47.100Z,33.64
2019-02-17T13:47:19.421Z,33.96
2019-02-17T13:49:50.436Z,33.80
2019-02-17T13:52:32.105Z,33.72
2019-02-17T13:55:03.725Z,33.73
2019-02-17T13:57:34.252Z,33.64
2019-02-17T14:00:05.817Z,33.62
2019-02-17T14:02:38.060Z,33.60
2019-02-17T14:05:10.354Z,33.20
2019-02-17T14:07:41.841Z,33.05
2019-02-17T14:10:14.694Z,33.17
2019-02-17T14:12:46.147Z,32.54
2019-02-17T14:15:17.743Z,32.32
2019-02-17T14:17:48.692Z,32.30
2019-02-17T14:20:19.314Z,32.45
2019-02-17T14:22:51.477Z,32.43
2019-02-17T14:25:21.990Z,31.81
2019-02-17T14:27:52.632Z,31.82
2019-02-17T14:30:26.301Z,31.76
2019-02-17T14:32:59.481Z,32.15
2019-02-17T14:35:31.568Z,31.91
2019-02-17T14:38:04.296Z,31.89
2019-02-17T14:40:34.889Z,31.84
2019-02-17T14:43:05.178Z,31.76
2019-02-17T14:45:35.511Z,31.93
2019-02-17T14:48:11.297Z,32.23
2019-02-17T14:50:39.776Z,32.22
2019-02-17T14:53:10.106Z,32.33
2019-02-17T14:55:48.092Z,32.26
2019-02-17T14:58:18.624Z,32.46
2019-02-17T15:00:49.436Z,32.26
2019-02-17T15:03:21.468Z,32.23
2019-02-17T15:05:53.697Z,32.39
2019-02-17T15:08:24.427Z,32.49
2019-02-17T15:10:56.436Z,32.73
2019-02-17T15:13:27.058Z,32.97
2019-02-17T15:15:58.618Z,33.00
2019-02-17T15:18:31.354Z,33.14
2019-02-17T15:21:01.577Z,33.06
2019-02-17T15:23:33.902Z,33.15
2019-02-17T15:26:05.899Z,33.14
2019-02-17T15:28:36.312Z,33.39
2019-02-17T15:31:06.765Z,33.44
2019-02-17T15:33:38.438Z,33.52
2019-02-17T15:36:10.677Z,33.69
2019-02-17T15:38:42.717Z,33.98
2019-02-17T15:41:13.082Z,34.06
2019-02-17T15:43:45.520Z,34.34
2019-02-17T15:46:17.436Z,34.51
2019-02-17T15:48:50.221Z,34.51
2019-02-17T15:51:20.404Z,34.71
2019-02-17T15:53:54.317Z,35.43
2019-02-17T15:56:26.521Z,35.43
2019-02-17T15:58:59.119Z,35.37
2019-02-17T16:01:30.936Z,35.31
2019-02-17T16:04:01.545Z,35.53
2019-02-17T16:06:32.117Z,35.85
2019-02-17T16:09:12.367Z,36.14
2019-02-17T16:11:37.547Z,36.38
2019-02-17T16:14:08.320Z,36.73
2019-02-17T16:16:40.056Z,37.11
2019-02-17T16:19:10.980Z,37.35
2019-02-17T16:21:41.613Z,37.35
2019-02-17T16:24:12.244Z,36.95
2019-02-17T16:26:42.728Z,37.08
2019-02-17T16:29:13.101Z,36.92
2019-02-17T16:31:43.463Z,36.90
2019-02-17T16:34:13.806Z,37.12
2019-02-17T16:36:46.930Z,37.12
2019-02-17T16:39:17.306Z,37.20
2019-02-17T16:41:48.324Z,37.64
2019-02-17T16:44:18.834Z,37.64
2019-02-17T16:46:49.713Z,38.38
2019-02-17T16:49:20.175Z,38.38
2019-02-17T16:51:50.894Z,38.51
2019-02-17T16:54:23.946Z,38.57
2019-02-17T16:56:54.989Z,38.70
2019-02-17T16:59:25.291Z,38.79
2019-02-17T17:01:57.732Z,39.05
2019-02-17T17:04:29.721Z,38.91
2019-02-17T17:07:01.700Z,39.01
2019-02-17T17:09:34.373Z,38.05
2019-02-17T17:12:05.469Z,38.20
2019-02-17T17:14:38.740Z,38.19
2019-02-17T17:17:13.138Z,38.65
2019-02-17T17:19:42.129Z,38.65
2019-02-17T17:22:14.688Z,38.47
2019-02-17T17:24:45.151Z,38.71
2019-02-17T17:27:18.010Z,38.81
2019-02-17T17:30:13.954Z,39.21
2019-02-17T17:32:46.466Z,39.43
2019-02-17T17:35:17.948Z,39.57
2019-02-17T17:37:48.451Z,39.89
2019-02-17T17:40:26.593Z,39.93
2019-02-17T17:42:55.103Z,40.04
2019-02-17T17:45:27.388Z,40.57
2019-02-17T17:48:02.527Z,40.53
2019-02-17T17:50:34.634Z,40.26
2019-02-17T17:53:04.984Z,40.68
2019-02-17T17:55:37.440Z,40.81
2019-02-17T17:58:09.031Z,41.23
2019-02-17T18:00:39.922Z,41.24
2019-02-17T18:03:10.353Z,41.53
2019-02-17T18:05:43.170Z,41.27
2019-02-17T18:08:13.543Z,41.56
2019-02-17T18:10:48.406Z,41.89
2019-02-17T18:13:16.135Z,41.80
2019-02-17T18:15:46.806Z,41.80
2019-02-17T18:18:17.551Z,41.79
2019-02-17T18:20:49.160Z,41.96
2019-02-17T18:23:22.718Z,41.97
2019-02-17T18:25:53.147Z,42.36
2019-02-17T18:28:24.655Z,42.10
2019-02-17T18:30:56.479Z,41.83
2019-02-17T18:33:33.614Z,42.62
2019-02-17T18:36:04.561Z,42.62
2019-02-17T18:38:38.266Z,42.62
2019-02-17T18:41:11.767Z,42.60
2019-02-17T18:43:42.830Z,43.31
2019-02-17T18:46:13.922Z,43.31
2019-02-17T18:48:44.305Z,42.93
2019-02-17T18:51:14.770Z,43.20
2019-02-17T18:53:46.643Z,43.43
2019-02-17T18:56:19.806Z,43.85
2019-02-17T18:58:50.509Z,43.91
2019-02-17T19:01:23.633Z,44.15
2019-02-17T19:03:56.133Z,44.43
2019-02-17T19:06:28.585Z,44.48
2019-02-17T19:08:58.977Z,44.56
2019-02-17T19:11:29.489Z,44.84
2019-02-17T19:14:00.119Z,44.92
2019-02-17T19:16:30.533Z,45.14
2019-02-17T19:19:00.969Z,45.39
2019-02-17T19:21:33.298Z,45.76
2019-02-17T19:24:05.122Z,46.22
2019-02-17T19:26:35.439Z,46.43
2019-02-17T19:29:08.786Z,46.60
2019-02-17T19:31:40.770Z,46.80
2019-02-17T19:34:15.527Z,46.79
2019-02-17T19:36:46.224Z,46.77
2019-02-17T19:39:17.104Z,46.74
2019-02-17T19:41:48.893Z,46.91
2019-02-17T19:44:21.134Z,47.23
2019-02-17T19:46:52.038Z,47.58
2019-02-17T19:49:28.566Z,47.87
2019-02-17T19:51:58.621Z,47.57
2019-02-17T19:54:29.650Z,47.58
2019-02-17T19:57:06.979Z,47.62
2019-02-17T19:59:34.275Z,47.92
2019-02-17T20:02:04.613Z,47.96
2019-02-17T20:04:44.092Z,47.91
2019-02-17T20:07:14.686Z,47.99
2019-02-17T20:09:47.086Z,48.25
2019-02-17T20:12:20.988Z,48.58
2019-02-17T20:15:00.909Z,48.91
2019-02-17T20:17:31.577Z,49.28
2019-02-17T20:20:02.347Z,49.65
2019-02-17T20:22:32.943Z,49.65
2019-02-17T20:25:03.876Z,50.32
2019-02-17T20:27:38.000Z,50.32
2019-02-17T20:30:10.572Z,50.37
2019-02-17T20:32:43.128Z,50.35
2019-02-17T20:35:16.337Z,50.55
2019-02-17T20:37:47.101Z,50.69
2019-02-17T20:40:17.516Z,50.75
2019-02-17T20:42:49.012Z,51.01
2019-02-17T20:45:19.586Z,51.10
2019-02-17T20:47:49.947Z,51.45
2019-02-17T20:50:20.407Z,51.60
2019-02-17T20:52:50.800Z,51.68
2019-02-17T20:55:21.432Z,51.83
2019-02-17T20:57:53.902Z,51.83
2019-02-17T21:00:30.163Z,51.83
2019-02-17T21:03:02.483Z,51.99
2019-02-17T21:05:33.306Z,51.80
2019-02-17T21:08:07.547Z,51.80
2019-02-17T21:10:40.283Z,51.72
2019-02-17T21:13:11.398Z,51.74
2019-02-17T21:15:43.597Z,51.64
2019-02-17T21:18:14.089Z,51.56
2019-02-17T21:20:44.466Z,51.48
2019-02-17T21:23:14.812Z,51.42
2019-02-17T21:25:47.463Z,51.46
2019-02-17T21:28:17.717Z,51.83
2019-02-17T21:30:50.569Z,51.85
2019-02-17T21:33:28.472Z,52.01
2019-02-17T21:36:01.262Z,52.25
2019-02-17T21:38:32.163Z,52.39
2019-02-17T21:41:09.468Z,52.62
2019-02-17T21:43:39.190Z,52.86
2019-02-17T21:46:11.399Z,52.82
2019-02-17T21:48:44.327Z,52.77
2019-02-17T21:51:18.400Z,52.78
2019-02-17T21:53:49.012Z,53.06
2019-02-17T21:56:20.010Z,53.26
2019-02-17T21:58:54.145Z,53.26
2019-02-17T22:01:26.171Z,53.51
2019-02-17T22:03:56.602Z,53.78
2019-02-17T22:06:33.771Z,53.49
2019-02-17T22:09:01.975Z,53.49
2019-02-17T22:11:35.743Z,53.83
2019-02-17T22:14:06.196Z,54.02
2019-02-17T22:16:36.552Z,54.33
2019-02-17T22:19:11.041Z,54.22
2019-02-17T22:21:41.805Z,54.30
2019-02-17T22:24:12.086Z,54.42
2019-02-17T22:26:42.814Z,54.67
2019-02-17T22:29:13.409Z,54.85
2019-02-17T22:31:43.759Z,54.84
2019-02-17T22:34:15.599Z,54.69
2019-02-17T22:36:47.573Z,54.59
2019-02-17T22:39:18.049Z,54.42
2019-02-17T22:41:49.623Z,54.55
2019-02-17T22:44:20.193Z,54.42
2019-02-17T22:46:50.627Z,54.49
2019-02-17T22:49:21.331Z,54.52
2019-02-17T22:51:51.729Z,54.32
2019-02-17T22:54:24.164Z,54.44
2019-02-17T22:56:56.485Z,53.99
2019-02-17T22:59:27.042Z,53.99
2019-02-17T23:01:58.955Z,54.19
2019-02-17T23:04:29.259Z,54.60
2019-02-17T23:06:59.692Z,54.74
2019-02-17T23:09:31.517Z,54.82
2019-02-17T23:12:01.797Z,54.35
2019-02-17T23:14:33.193Z,54.40
2019-02-17T23:17:03.519Z,54.18
2019-02-17T23:19:34.124Z,54.09
2019-02-17T23:22:05.123Z,54.66
2019-02-17T23:24:36.760Z,54.66
2019-02-17T23:27:07.254Z,54.54
2019-02-17T23:29:40.479Z,54.50
2019-02-17T23:32:11.094Z,54.21
2019-02-17T23:34:41.384Z,54.57
2019-02-17T23:37:11.805Z,54.93
2019-02-17T23:39:42.209Z,55.22
2019-02-17T23:42:14.304Z,55.37
2019-02-17T23:44:48.527Z,55.03
2019-02-17T23:47:20.247Z,55.41
2019-02-17T23:49:52.171Z,55.41
2019-02-17T23:52:24.547Z,55.31
2019-02-17T23:54:58.575Z,55.25
2019-02-17T23:57:28.966Z,55.43
2019-02-17T23:59:59.467Z,55.50
